Terminal Aerodrome Forecast
Issued by NWS Omaha/Valley, NE

Home | Current Version | Previous Version | Graphics & Text | Print | Product List | Glossary On
Versions: 1 2 3 4 5 6 7 8 9 10 11 12 13 14 15 16 17 18 19 20 21 22 23 24 25 26 27 28 29 30 31 32 33 34 35 36
914
FTUS43 KOAX 232320
TAFOFK
TAF
KOFK 232320Z 2400/2424 19011KT P6SM OVC090
     FM240800 21005KT 5SM BR BKN120
     FM241100 22004KT 2SM BR SCT120
     FM241400 11009KT P6SM SCT150=

USA.gov is the U.S. government's official web portal to all federal, state and local government web resources and services.